.
WxDataArchive / Data Records for 2006-07-31
2006-07-30 July 2006 2006-08-01

Data Records for Monday, 31 July 2006

Time	Temp	Chill	HIndex	Humid	Dewpt	 Wind 	HiWind	WindDir	Rain 	Barom 
-----	----	-----	------	-----	-----	------	------	-------	-----	----- 
00:00	79.6	79.6	83.7	83	74.0	1	3	270	0.00	29.816 
00:05	79.6	79.6	83.7	83	74.0	0	2	270	0.00	29.816 
00:10	79.6	79.6	83.7	83	74.0	1	3	270	0.00	29.816 
00:15	79.6	79.6	83.7	83	74.0	1	4	248	0.00	29.822 
00:20	79.4	79.4	83.3	83	73.8	0	2	248	0.00	29.822 
00:25	79.4	79.4	83.3	83	73.8	0	2	248	0.00	29.822 
00:30	79.2	79.2	82.9	83	73.6	0	1	248	0.00	29.820 
00:35	79.2	79.2	82.9	84	73.9	0	2	248	0.00	29.820 
00:40	79.0	79.0	82.5	84	73.7	0	2	248	0.00	29.820 
00:45	79.0	79.0	82.5	84	73.7	0	2	248	0.00	29.818 
00:50	79.0	79.0	82.5	84	73.7	0	2	248	0.00	29.818 
00:55	79.0	79.0	82.5	84	73.7	1	3	248	0.00	29.818 
01:00	78.8	78.8	82.1	84	73.5	0	2	248	0.00	29.820 
01:05	78.8	78.8	82.1	84	73.5	1	3	248	0.00	29.820 
01:10	78.8	78.8	82.1	84	73.5	1	4	248	0.00	29.820 
01:15	78.8	78.8	82.1	84	73.5	1	2	315	0.00	29.818 
01:20	78.8	78.8	82.1	84	73.5	0	2	315	0.00	29.818 
01:25	78.6	78.6	81.6	84	73.3	1	2	270	0.00	29.818 
01:30	78.6	78.6	81.6	84	73.3	0	2	270	0.00	29.814 
01:35	78.5	78.5	81.4	84	73.2	1	3	248	0.00	29.814 
01:40	78.5	78.5	81.4	84	73.2	2	4	248	0.00	29.814 
01:45	78.5	78.5	81.4	84	73.2	1	3	248	0.00	29.814 
01:50	78.5	78.5	81.4	84	73.2	1	3	248	0.00	29.814 
01:55	78.5	78.5	81.4	84	73.2	1	5	248	0.00	29.814 
02:00	78.5	78.5	81.4	84	73.2	1	5	248	0.00	29.809 
02:05	78.3	78.3	81.0	84	73.1	1	2	248	0.00	29.809 
02:10	78.3	78.3	81.0	84	73.1	1	3	248	0.00	29.809 
02:15	78.1	78.1	80.6	84	72.9	1	3	248	0.00	29.806 
02:20	78.3	78.3	81.0	84	73.1	1	3	248	0.00	29.806 
02:25	78.3	78.3	81.0	84	73.1	1	3	248	0.00	29.806 
02:30	78.3	78.3	81.0	84	73.1	2	4	248	0.00	29.800 
02:35	78.3	78.3	81.0	84	73.1	1	3	248	0.00	29.800 
02:40	78.3	78.3	81.0	84	73.1	1	3	248	0.00	29.800 
02:45	78.3	78.3	81.0	84	73.1	1	4	248	0.00	29.799 
02:50	78.5	78.5	81.4	84	73.2	1	4	248	0.00	29.799 
02:55	78.5	78.5	81.4	84	73.2	1	3	248	0.00	29.799 
03:00	78.3	78.3	81.0	84	73.1	1	3	248	0.00	29.796 
03:05	78.3	78.3	81.0	84	73.1	1	4	248	0.00	29.796 
03:10	78.3	78.3	81.0	85	73.4	1	3	248	0.00	29.796 
03:15	78.3	78.3	81.0	85	73.4	1	2	248	0.00	29.798 
03:20	78.3	78.3	81.0	85	73.4	1	3	248	0.00	29.798 
03:25	78.3	78.3	81.0	85	73.4	1	4	248	0.00	29.798 
03:30	78.1	78.1	80.6	85	73.2	0	1	248	0.00	29.798 
03:35	78.1	78.1	80.6	85	73.2	1	3	248	0.00	29.798 
03:40	77.9	77.9	80.2	86	73.4	1	3	248	0.00	29.798 
03:45	78.1	78.1	80.6	85	73.2	2	3	248	0.00	29.797 
03:50	78.1	78.1	80.6	85	73.2	1	3	270	0.00	29.797 
03:55	77.9	77.9	80.2	85	73.0	1	3	248	0.00	29.797 
04:00	77.9	77.9	80.2	86	73.4	1	3	248	0.00	29.797 
04:05	77.7	77.7	79.8	86	73.2	1	3	248	0.00	29.797 
04:10	77.9	77.9	80.2	85	73.0	1	2	248	0.00	29.797 
04:15	77.7	77.7	79.8	85	72.8	1	3	248	0.00	29.798 
04:20	77.7	77.7	79.8	86	73.2	0	3	248	0.00	29.798 
04:25	77.6	77.6	79.6	86	73.1	0	2	248	0.00	29.798 
04:30	77.4	77.4	79.1	87	73.2	0	2	248	0.00	29.800 
04:35	77.4	77.4	79.1	87	73.2	1	3	270	0.00	29.800 
04:40	77.4	77.4	79.1	87	73.2	1	3	270	0.00	29.800 
04:45	77.4	77.4	79.1	87	73.2	0	3	248	0.00	29.800 
04:50	77.2	77.2	78.7	87	73.0	0	1	248	0.00	29.800 
04:55	77.2	77.2	78.7	87	73.0	0	2	248	0.00	29.800 
05:00	77.2	77.2	78.7	88	73.4	0	2	248	0.00	29.804 
05:05	77.0	77.0	78.3	88	73.2	0	1	248	0.00	29.804 
05:10	77.0	77.0	78.3	88	73.2	0	1	248	0.00	29.804 
05:15	76.8	76.8	77.9	88	73.0	0	2	248	0.00	29.810 
05:20	76.8	76.8	77.9	88	73.0	0	2	248	0.00	29.810 
05:25	76.7	76.7	77.7	88	72.9	0	1	248	0.00	29.810 
05:30	76.7	76.7	77.7	88	72.9	0	1	248	0.00	29.810 
05:35	76.5	76.5	77.2	89	73.0	0	1	248	0.00	29.810 
05:40	76.5	76.5	77.2	89	73.0	0	1	248	0.00	29.810 
05:45	76.3	76.3	76.8	89	72.8	0	1	248	0.00	29.813 
05:50	76.1	76.1	76.4	89	72.6	0	0	---	0.00	29.813 
05:55	76.1	76.1	76.3	90	72.9	0	1	248	0.00	29.813 
06:00	76.0	76.0	76.0	90	72.8	0	0	---	0.00	29.816 
06:05	76.0	76.0	76.0	90	72.8	0	0	---	0.00	29.816 
06:10	75.8	75.8	75.6	90	72.6	0	0	---	0.00	29.816 
06:15	75.8	75.8	75.5	91	73.0	0	0	---	0.00	29.821 
06:20	75.6	75.6	75.1	91	72.8	0	0	---	0.00	29.821 
06:25	75.6	75.6	75.1	91	72.8	0	1	248	0.00	29.821 
06:30	75.4	75.4	74.7	91	72.6	0	0	---	0.00	29.825 
06:35	75.4	75.4	74.5	92	72.9	0	0	---	0.00	29.825 
06:40	75.4	75.4	74.5	92	72.9	0	1	248	0.00	29.825 
06:45	75.3	75.3	74.3	92	72.8	0	1	248	0.00	29.830 
06:50	75.3	75.3	74.3	92	72.8	0	1	248	0.00	29.830 
06:55	75.3	75.3	74.3	92	72.8	0	1	248	0.00	29.830 
07:00	75.3	75.3	74.3	92	72.8	1	2	248	0.00	29.831 
07:05	75.4	75.4	74.5	92	72.9	0	2	248	0.00	29.831 
07:10	75.4	75.4	74.5	92	72.9	0	1	248	0.00	29.831 
07:15	75.4	75.4	74.5	92	72.9	0	1	248	0.00	29.836 
07:20	75.4	75.4	74.5	92	72.9	0	1	248	0.00	29.836 
07:25	75.6	75.6	75.0	92	73.1	0	1	248	0.00	29.836 
07:30	75.8	75.8	75.5	91	73.0	0	2	248	0.00	29.843 
07:35	76.0	76.0	75.9	91	73.2	0	1	248	0.00	29.843 
07:40	76.3	76.3	76.6	91	73.5	0	1	248	0.00	29.843 
07:45	76.5	76.5	77.1	90	73.3	0	1	248	0.00	29.848 
07:50	76.8	76.8	77.8	89	73.3	0	2	248	0.00	29.848 
07:55	77.2	77.2	78.7	88	73.4	0	1	248	0.00	29.848 
08:00	77.6	77.6	79.6	87	73.4	0	2	248	0.00	29.849 
08:05	77.9	77.9	80.2	86	73.4	0	2	248	0.00	29.849 
08:10	78.5	78.5	81.5	85	73.6	0	2	248	0.00	29.849 
08:15	78.8	78.8	82.1	84	73.5	1	2	248	0.00	29.854 
08:20	79.2	79.2	82.9	84	73.9	0	3	248	0.00	29.854 
08:25	79.6	79.6	83.6	82	73.6	0	1	248	0.00	29.854 
08:30	79.9	79.9	84.1	81	73.5	1	3	248	0.00	29.858 
08:35	80.3	80.3	84.9	80	73.5	1	3	270	0.00	29.858 
08:40	80.7	80.7	85.8	80	73.9	1	3	270	0.00	29.858 
08:45	80.9	80.9	86.0	79	73.8	1	3	248	0.00	29.858 
08:50	81.2	81.2	86.5	78	73.7	1	2	248	0.00	29.858 
08:55	81.6	81.6	87.2	77	73.7	2	3	248	0.00	29.858 
09:00	81.8	81.8	87.6	77	73.9	1	5	270	0.00	29.859 
09:05	82.0	82.0	87.6	75	73.3	1	4	248	0.00	29.859 
09:10	82.2	82.2	88.3	76	73.9	1	4	248	0.00	29.859 
09:15	82.4	82.4	88.4	75	73.7	2	4	248	0.00	29.860 
09:20	82.6	82.6	89.4	77	74.6	1	4	270	0.00	29.860 
09:25	82.8	82.8	89.1	74	73.6	1	3	248	0.00	29.860 
09:30	83.2	83.2	90.0	74	74.0	1	3	248	0.00	29.861 
09:35	83.4	83.4	90.1	73	73.8	1	3	270	0.00	29.861 
09:40	84.0	84.0	91.5	73	74.4	1	3	270	0.00	29.861 
09:45	84.3	84.3	91.5	71	73.8	1	3	270	0.00	29.860 
09:50	84.7	84.7	92.0	70	73.8	1	3	248	0.00	29.860 
09:55	84.9	84.9	92.1	69	73.6	1	3	270	0.00	29.860 
10:00	85.1	85.1	92.2	68	73.3	1	3	248	0.00	29.859 
10:05	85.3	85.3	92.6	68	73.5	1	3	248	0.00	29.859 
10:10	85.5	85.5	92.7	67	73.3	1	3	270	0.00	29.859 
10:15	85.5	85.5	93.5	69	74.1	1	3	338	0.00	29.857 
10:20	85.7	85.7	93.5	68	73.9	2	4	248	0.00	29.857 
10:25	86.1	86.1	94.9	69	74.7	1	3	270	0.00	29.857 
10:30	86.5	86.5	94.9	67	74.2	1	3	248	0.00	29.858 
10:35	86.7	86.7	95.0	66	73.9	1	3	248	0.00	29.858 
10:40	87.0	87.0	96.1	67	74.7	1	3	248	0.00	29.858 
10:45	87.4	87.4	96.6	66	74.6	2	4	248	0.00	29.858 
10:50	87.6	87.6	96.1	64	73.9	1	3	248	0.00	29.858 
10:55	87.8	87.8	97.1	65	74.5	1	3	248	0.00	29.858 
11:00	88.2	88.2	97.5	64	74.4	1	3	270	0.00	29.858 
11:05	88.4	88.4	99.1	66	75.6	1	2	270	0.00	29.858 
11:10	88.6	88.6	98.5	64	74.8	1	3	248	0.00	29.858 
11:15	88.8	88.8	98.5	63	74.5	1	2	248	0.00	29.860 
11:20	89.0	89.0	99.5	64	75.2	1	5	270	0.00	29.860 
11:25	89.3	89.3	99.1	62	74.5	1	3	270	0.00	29.860 
11:30	89.5	89.5	99.6	62	74.7	1	3	292	0.00	29.861 
11:35	89.7	89.7	99.5	61	74.4	1	3	270	0.00	29.861 
11:40	90.1	90.1	100.5	61	74.8	0	2	248	0.00	29.861 
11:45	90.5	90.5	101.5	61	75.2	1	2	248	0.00	29.858 
11:50	90.5	90.5	101.5	61	75.2	1	3	270	0.00	29.858 
11:55	90.5	90.5	100.3	59	74.2	1	3	270	0.00	29.858 
12:00	90.7	90.7	100.2	58	73.8	1	2	270	0.00	29.857 
12:05	91.4	91.4	103.1	60	75.5	1	3	270	0.00	29.857 
12:10	91.8	91.8	102.2	57	74.4	1	3	270	0.00	29.857 
12:15	92.1	92.1	101.1	54	73.0	1	3	270	0.00	29.855 
12:20	92.1	92.1	102.3	56	74.1	1	3	248	0.00	29.855 
12:25	92.3	92.3	102.8	56	74.3	1	2	248	0.00	29.855 
12:30	92.7	92.7	103.8	56	74.7	1	3	248	0.00	29.849 
12:35	93.2	93.2	103.0	53	73.5	1	3	248	0.00	29.849 
12:40	93.6	93.6	104.6	54	74.4	1	4	112	0.00	29.849 
12:45	93.6	93.6	103.9	53	73.8	1	4	248	0.00	29.847 
12:50	93.6	93.6	104.6	54	74.4	1	2	248	0.00	29.847 
12:55	93.8	93.8	105.1	54	74.6	1	5	248	0.00	29.847 
13:00	93.8	93.8	106.6	56	75.7	1	3	270	0.00	29.840 
13:05	93.8	93.8	105.1	54	74.6	1	3	248	0.00	29.840 
13:10	93.8	93.8	105.1	54	74.6	2	4	270	0.00	29.840 
13:15	93.6	93.6	103.9	53	73.8	2	3	270	0.00	29.838 
13:20	93.6	93.6	103.9	53	73.8	2	4	248	0.00	29.838 
13:25	93.8	93.8	104.4	53	74.0	1	3	292	0.00	29.838 
13:30	94.0	94.0	104.9	53	74.2	2	4	292	0.00	29.834 
13:35	94.3	94.3	104.9	52	73.9	2	6	270	0.00	29.834 
13:40	94.3	94.3	104.9	52	73.9	2	5	90	0.00	29.834 
13:45	94.3	94.3	107.1	55	75.6	2	5	90	0.00	29.825 
13:50	94.5	94.5	106.9	54	75.2	1	6	248	0.00	29.825 
13:55	94.5	94.5	108.4	56	76.3	2	6	90	0.00	29.825 
14:00	94.3	94.3	106.4	54	75.0	2	6	248	0.00	29.821 
14:05	94.0	94.0	103.6	51	73.1	1	3	292	0.00	29.821 
14:10	94.3	94.3	104.3	51	73.3	1	4	292	0.00	29.821 
14:15	94.5	94.5	107.6	55	75.8	1	4	270	0.00	29.820 
14:20	94.9	94.9	109.5	56	76.7	1	2	270	0.00	29.820 
14:25	95.1	95.1	105.5	50	73.5	2	4	270	0.00	29.820 
14:30	95.1	95.1	104.8	49	72.9	2	3	270	0.00	29.818 
14:35	95.4	95.4	104.8	48	72.5	2	5	270	0.00	29.818 
14:40	95.1	95.1	104.8	49	72.9	2	4	270	0.00	29.818 
14:45	95.4	95.4	104.8	48	72.5	2	5	270	0.00	29.813 
14:50	95.6	95.6	103.8	46	71.5	1	5	270	0.00	29.813 
14:55	95.6	95.6	103.2	45	70.8	2	7	270	0.00	29.813 
15:00	95.9	95.9	105.9	48	73.0	1	3	292	0.00	29.808 
15:05	95.9	95.9	102.5	43	69.7	3	7	270	0.00	29.808 
15:10	94.9	94.9	103.6	48	72.1	2	4	270	0.00	29.808 
15:15	95.1	95.1	103.4	47	71.6	3	5	248	0.00	29.816 
15:20	95.6	95.6	105.2	48	72.7	2	4	270	0.00	29.816 
15:25	95.6	95.6	102.5	44	70.2	2	4	248	0.00	29.816 
15:30	95.1	95.1	102.7	46	71.0	2	5	248	0.00	29.814 
15:35	94.7	94.7	101.9	46	70.6	2	6	248	0.00	29.814 
15:40	95.1	95.1	100.9	43	69.0	2	3	248	0.00	29.814 
15:45	95.4	95.4	103.4	46	71.3	3	6	270	0.00	29.812 
15:50	95.6	95.6	102.5	44	70.2	3	6	270	0.00	29.812 
15:55	96.1	96.1	104.3	45	71.3	2	5	248	0.00	29.812 
16:00	95.9	95.9	104.5	46	71.7	1	5	248	0.00	29.808 
16:05	95.6	95.6	103.8	46	71.5	3	9	248	0.00	29.808 
16:10	95.6	95.6	105.2	48	72.7	2	4	248	0.00	29.808 
16:15	95.6	95.6	103.8	46	71.5	3	7	270	0.00	29.808 
16:20	95.6	95.6	103.2	45	70.8	2	5	270	0.00	29.808 
16:25	95.4	95.4	102.7	45	70.6	2	4	270	0.00	29.808 
16:30	95.4	95.4	104.1	47	71.9	4	7	270	0.00	29.805 
16:35	95.1	95.1	103.4	47	71.6	2	5	270	0.00	29.805 
16:40	95.4	95.4	106.2	50	73.8	2	5	270	0.00	29.805 
16:45	95.1	95.1	102.7	46	71.0	3	6	270	0.00	29.806 
16:50	95.1	95.1	102.7	46	71.0	3	8	248	0.00	29.806 
16:55	95.1	95.1	104.8	49	72.9	2	5	270	0.00	29.806 
17:00	95.4	95.4	104.1	47	71.9	3	9	270	0.00	29.805 
17:05	95.4	95.4	105.5	49	73.2	2	5	270	0.00	29.805 
17:10	95.4	95.4	104.1	47	71.9	2	7	270	0.00	29.805 
17:15	95.1	95.1	104.1	48	72.3	3	5	270	0.00	29.805 
17:20	95.1	95.1	104.8	49	72.9	2	5	270	0.00	29.805 
17:25	95.1	95.1	104.1	48	72.3	2	5	270	0.00	29.805 
17:30	94.9	94.9	105.0	50	73.3	1	4	270	0.00	29.805 
17:35	94.7	94.7	103.8	49	72.5	3	6	270	0.00	29.805 
17:40	94.5	94.5	104.7	51	73.5	2	5	270	0.00	29.805 
17:45	94.5	94.5	104.7	51	73.5	3	9	248	0.00	29.808 
17:50	94.3	94.3	104.3	51	73.3	3	6	270	0.00	29.808 
17:55	93.8	93.8	103.7	52	73.5	2	6	248	0.00	29.808 
18:00	93.6	93.6	103.9	53	73.8	3	5	248	0.00	29.809 
18:05	93.4	93.4	103.5	53	73.7	2	5	270	0.00	29.809 
18:10	93.2	93.2	103.0	53	73.5	2	6	248	0.00	29.809 
18:15	93.2	93.2	103.0	53	73.5	2	4	270	0.00	29.810 
18:20	93.2	93.2	103.7	54	74.0	3	8	270	0.00	29.810 
18:25	93.2	93.2	103.7	54	74.0	2	3	270	0.00	29.810 
18:30	93.2	93.2	102.4	52	72.9	2	5	270	0.00	29.810 
18:35	92.9	92.9	102.9	54	73.8	2	5	270	0.00	29.810 
18:40	92.9	92.9	104.3	56	74.8	2	4	270	0.00	29.810 
18:45	92.7	92.7	103.1	55	74.1	2	4	270	0.00	29.808 
18:50	92.7	92.7	103.8	56	74.7	3	6	270	0.00	29.808 
18:55	92.7	92.7	103.8	56	74.7	3	8	248	0.00	29.808 
19:00	92.5	92.5	103.3	56	74.5	2	5	270	0.00	29.811 
19:05	92.1	92.1	102.3	56	74.1	3	7	248	0.00	29.811 
19:10	92.1	92.1	102.9	57	74.6	2	5	270	0.00	29.811 
19:15	91.8	91.8	102.2	57	74.4	2	5	248	0.00	29.809 
19:20	91.4	91.4	101.9	58	74.5	3	6	248	0.00	29.809 
19:25	91.2	91.2	102.0	59	74.8	2	5	248	0.00	29.809 
19:30	91.2	91.2	102.6	60	75.3	1	2	248	0.00	29.813 
19:35	91.2	91.2	102.6	60	75.3	1	3	248	0.00	29.813 
19:40	91.2	91.2	102.6	60	75.3	2	4	248	0.00	29.813 
19:45	91.0	91.0	101.5	59	74.6	2	6	270	0.00	29.813 
19:50	90.7	90.7	101.4	60	74.9	3	6	248	0.00	29.813 
19:55	90.7	90.7	101.4	60	74.9	2	5	270	0.00	29.813 
20:00	90.5	90.5	100.9	60	74.7	2	4	270	0.00	29.816 
20:05	90.5	90.5	100.9	60	74.7	2	6	270	0.00	29.816 
20:10	90.3	90.3	101.0	61	75.0	2	5	248	0.00	29.816 
20:15	90.1	90.1	100.5	61	74.8	2	4	248	0.00	29.821 
20:20	90.1	90.1	101.1	62	75.3	2	4	270	0.00	29.821 
20:25	89.9	89.9	100.6	62	75.1	1	4	248	0.00	29.821 
20:30	89.7	89.7	100.1	62	74.9	2	4	248	0.00	29.824 
20:35	89.7	89.7	100.1	62	74.9	1	3	248	0.00	29.824 
20:40	89.5	89.5	100.2	63	75.2	1	3	248	0.00	29.824 
20:45	89.3	89.3	99.1	62	74.5	1	4	270	0.00	29.828 
20:50	89.0	89.0	98.9	63	74.7	0	2	270	0.00	29.828 
20:55	88.8	88.8	98.5	63	74.5	1	4	248	0.00	29.828 
21:00	88.8	88.8	98.5	63	74.5	1	2	248	0.00	29.833 
21:05	88.6	88.6	98.0	63	74.4	1	3	248	0.00	29.833 
21:10	88.6	88.6	98.5	64	74.8	1	2	248	0.00	29.833 
21:15	88.4	88.4	98.0	64	74.6	1	3	248	0.00	29.835 
21:20	88.2	88.2	98.0	65	74.9	1	3	248	0.00	29.835 
21:25	88.2	88.2	98.0	65	74.9	0	2	248	0.00	29.835 
21:30	88.0	88.0	98.1	66	75.2	0	1	248	0.00	29.839 
21:35	87.6	87.6	97.6	67	75.3	0	2	248	0.00	29.839 
21:40	87.4	87.4	97.1	67	75.1	0	1	248	0.00	29.839 
21:45	87.2	87.2	97.1	68	75.3	0	2	248	0.00	29.841 
21:50	87.0	87.0	97.1	69	75.6	0	2	248	0.00	29.841 
21:55	86.5	86.5	96.3	70	75.5	0	1	248	0.00	29.841 
22:00	86.3	86.3	96.3	71	75.8	0	1	248	0.00	29.845 
22:05	85.9	85.9	95.7	72	75.8	0	1	248	0.00	29.845 
22:10	85.7	85.7	95.6	73	76.0	0	2	248	0.00	29.845 
22:15	85.7	85.7	95.6	73	76.0	0	2	248	0.00	29.850 
22:20	85.5	85.5	95.6	74	76.2	0	2	248	0.00	29.850 
22:25	85.3	85.3	95.5	75	76.4	0	2	248	0.00	29.850 
22:30	85.3	85.3	95.5	75	76.4	1	2	248	0.00	29.854 
22:35	85.1	85.1	95.4	76	76.7	0	2	248	0.00	29.854 
22:40	84.9	84.9	94.8	76	76.5	0	3	270	0.00	29.854 
22:45	84.7	84.7	94.7	77	76.7	0	2	270	0.00	29.853 
22:50	84.7	84.7	94.7	77	76.7	1	2	270	0.00	29.853 
22:55	84.5	84.5	94.2	77	76.5	1	3	270	0.00	29.853 
23:00	84.5	84.5	94.6	78	76.9	1	3	270	0.00	29.850 
23:05	84.3	84.3	94.4	79	77.1	1	5	248	0.00	29.850 
23:10	84.3	84.3	94.4	79	77.1	1	4	248	0.00	29.850 
23:15	84.3	84.3	94.4	79	77.1	1	4	248	0.00	29.845 
23:20	84.3	84.3	94.4	79	77.1	2	3	248	0.00	29.845 
23:25	84.3	84.3	94.4	79	77.1	1	3	248	0.00	29.845 
23:30	84.1	84.1	93.9	79	76.9	1	3	248	0.00	29.850 
23:35	84.1	84.1	93.9	79	76.9	1	2	248	0.00	29.850 
23:40	84.1	84.1	93.9	79	76.9	1	4	248	0.00	29.850 
23:45	84.0	84.0	93.6	79	76.8	1	3	248	0.00	29.851 
23:50	84.0	84.0	93.6	79	76.8	1	3	248	0.00	29.851 
23:55	84.0	84.0	93.2	78	76.4	1	4	270	0.00	29.851 

CoCoRaHS
IN-AL-39
A2 Web Hosting
Creative Commons License
GoDaddy
Look for:

loaded 2017-12-12 14:33:26 • last modified 2010-11-18 10:43:29
Privacy PolicyDisclaimer
• wx.awcolley.com is powered by PmWiki v.2002016 •
• all content (unless otherwise noted) © 2017 A W Colley